Time;durP1;ratioP1;P1;durP2;ratioP2;P2;SDS_P1;SDS_P2;PMS_P1;PMS_P2;Temp;Humidity;BMP_temperature;BMP_pressure;BME280_temperature;BME280_humidity;BME280_pressure;Samples;Min_cycle;Max_cycle;Signal;HPM_P1;HPM_P2
2021/06/21 00:03:29;;;;;;;8.20;5.47;;;;;;;0.01;0.00;59042.03;10318491;28;20052;-59
2021/06/21 00:08:27;;;;;;;6.10;5.20;;;;;;;0.01;0.00;59042.03;10318672;28;20052;-59
2021/06/21 00:13:27;;;;;;;6.75;6.15;;;;;;;0.01;0.00;59042.03;10318159;28;20477;-58
2021/06/21 00:18:26;;;;;;;7.80;4.82;;;;;;;0.01;0.00;59042.03;10318646;28;20505;-58
2021/06/21 00:23:25;;;;;;;14.00;5.88;;;;;;;0.01;0.00;59042.03;10317910;28;20048;-59
2021/06/21 00:28:24;;;;;;;9.98;5.22;;;;;;;0.01;0.00;59042.03;10317525;28;20044;-58
2021/06/21 00:33:24;;;;;;;9.85;5.45;;;;;;;0.01;0.00;59042.03;10317603;28;20040;-58
2021/06/21 00:38:23;;;;;;;8.15;4.88;;;;;;;0.01;0.00;59042.03;10316413;28;20520;-58
2021/06/21 00:43:22;;;;;;;6.93;5.35;;;;;;;0.01;0.00;59042.03;10317372;28;20037;-58
2021/06/21 00:48:20;;;;;;;7.60;5.28;;;;;;;0.01;0.00;59042.03;10316102;28;20086;-58
2021/06/21 00:53:21;;;;;;;7.95;6.32;;;;;;;0.01;0.00;59042.03;10316752;28;20043;-58
2021/06/21 00:58:20;;;;;;;8.40;5.60;;;;;;;0.01;0.00;59042.03;10316091;28;20501;-58
2021/06/21 01:03:19;;;;;;;7.40;5.68;;;;;;;0.01;0.00;59042.03;10316535;28;20049;-58
2021/06/21 01:08:18;;;;;;;10.13;4.95;;;;;;;0.01;0.00;59042.03;10316702;28;20040;-57
2021/06/21 01:13:43;;;;;;;12.02;5.57;;;;;;;0.01;0.00;59042.03;10316120;28;20051;-58
2021/06/21 01:18:51;;;;;;;9.48;5.70;;;;;;;0.01;0.00;59042.03;10316271;28;20490;-58
2021/06/21 01:24:40;;;;;;;10.25;5.57;;;;;;;0.01;0.00;59042.03;10316248;28;20056;-58
2021/06/21 01:29:54;;;;;;;15.50;6.13;;;;;;;0.01;0.00;59042.03;10297934;28;20171;-58
2021/06/21 01:34:58;;;;;;;10.98;5.82;;;;;;;0.01;0.00;59042.03;10316402;28;20498;-58
2021/06/21 01:39:59;;;;;;;9.80;5.82;;;;;;;0.01;0.00;59042.03;10316474;28;20052;-57
2021/06/21 01:45:02;;;;;;;8.88;5.43;;;;;;;0.01;0.00;59042.03;10315977;28;20524;-57
2021/06/21 01:50:04;;;;;;;8.85;6.00;;;;;;;0.01;0.00;59042.03;10315417;28;20052;-57
2021/06/21 01:55:04;;;;;;;9.65;5.95;;;;;;;0.01;0.00;59042.03;10316234;28;20084;-58
2021/06/21 02:00:06;;;;;;;7.72;6.00;;;;;;;0.01;0.00;59042.03;10315710;28;20045;-58
2021/06/21 02:05:09;;;;;;;10.40;5.47;;;;;;;0.01;0.00;59042.03;10322393;28;20071;-58
2021/06/21 02:10:09;;;;;;;11.27;6.05;;;;;;;0.01;0.00;59042.03;10323493;28;20052;-57
2021/06/21 02:15:09;;;;;;;8.75;5.88;;;;;;;0.01;0.00;59042.03;10323673;28;20076;-58
2021/06/21 02:20:12;;;;;;;11.05;6.07;;;;;;;0.01;0.00;59042.03;10322665;28;20040;-57
2021/06/21 02:25:12;;;;;;;11.27;6.15;;;;;;;0.01;0.00;59042.03;10323194;28;20434;-57
2021/06/21 02:30:14;;;;;;;13.57;6.55;;;;;;;0.01;0.00;59042.03;10322657;28;20083;-57
2021/06/21 02:35:16;;;;;;;6.15;5.55;;;;;;;0.01;0.00;59042.03;10303903;28;20044;-57
2021/06/21 02:40:17;;;;;;;9.07;5.85;;;;;;;0.01;0.00;59042.03;10321732;28;20512;-57
2021/06/21 02:45:16;;;;;;;8.15;5.65;;;;;;;0.01;0.00;59042.03;10321739;28;20067;-57
2021/06/21 02:50:17;;;;;;;13.82;5.80;;;;;;;0.01;0.00;59042.03;10321770;28;20484;-58
2021/06/21 02:55:21;;;;;;;6.30;5.70;;;;;;;0.01;0.00;59042.03;10321973;28;20076;-57
2021/06/21 03:00:21;;;;;;;9.00;6.45;;;;;;;0.01;0.00;59042.03;10321226;28;20087;-59
2021/06/21 03:05:23;;;;;;;7.90;6.35;;;;;;;0.01;0.00;59042.03;10321578;28;20179;-57
2021/06/21 03:10:25;;;;;;;6.68;6.05;;;;;;;0.01;0.00;59042.03;10320399;28;20083;-58
2021/06/21 03:15:27;;;;;;;7.68;5.78;;;;;;;0.01;0.00;59042.03;10319963;28;20501;-59
2021/06/21 03:20:28;;;;;;;6.75;5.35;;;;;;;0.01;0.00;59042.03;10320904;28;20040;-58
2021/06/21 03:25:28;;;;;;;7.72;6.93;;;;;;;0.01;0.00;59042.03;10320422;28;20032;-52
2021/06/21 03:30:27;;;;;;;7.97;6.63;;;;;;;0.01;0.00;59042.03;10319951;28;20056;-53
2021/06/21 03:35:26;;;;;;;8.20;6.68;;;;;;;0.01;0.00;59042.03;10320425;28;20075;-53
2021/06/21 03:40:26;;;;;;;7.45;6.40;;;;;;;0.01;0.00;59042.03;10301806;28;20045;-48
2021/06/21 03:45:25;;;;;;;7.55;6.95;;;;;;;0.01;0.00;59042.03;10320254;28;20451;-54
2021/06/21 03:50:24;;;;;;;10.55;7.00;;;;;;;0.01;0.00;59042.03;10301635;28;20044;-52
2021/06/21 03:55:23;;;;;;;9.52;6.82;;;;;;;0.01;0.00;59042.03;10318869;28;20044;-51
2021/06/21 04:00:25;;;;;;;9.00;6.82;;;;;;;0.01;0.00;59042.03;10317929;28;20056;-54
2021/06/21 04:05:24;;;;;;;7.28;6.70;;;;;;;0.01;0.00;59042.03;10317903;28;20045;-54
2021/06/21 04:10:25;;;;;;;8.30;7.60;;;;;;;0.01;0.00;59042.03;10300274;28;20048;-54
2021/06/21 04:15:28;;;;;;;7.85;6.70;;;;;;;0.01;0.00;59042.03;10318617;28;20422;-55
2021/06/21 04:20:28;;;;;;;10.45;6.85;;;;;;;0.01;0.00;59042.03;10318050;28;20051;-52
2021/06/21 04:25:27;;;;;;;20.58;12.68;;;;;;;0.01;0.00;59042.03;10316398;28;20045;-52
2021/06/21 04:30:28;;;;;;;12.70;10.55;;;;;;;0.01;0.00;59042.03;10317132;28;20067;-52
2021/06/21 04:35:28;;;;;;;11.68;8.85;;;;;;;0.01;0.00;59042.03;10316678;28;20052;-53
2021/06/21 04:40:32;;;;;;;13.68;8.50;;;;;;;0.01;0.00;59042.03;10316653;28;20418;-55
2021/06/21 04:45:33;;;;;;;10.82;6.60;;;;;;;0.01;0.00;59042.03;10317516;28;20055;-51
2021/06/21 04:50:34;;;;;;;10.85;7.75;;;;;;;0.01;0.00;59042.03;10317147;28;20501;-54
2021/06/21 04:55:33;;;;;;;11.60;8.55;;;;;;;0.01;0.00;59042.03;10316602;28;20059;-54
2021/06/21 05:00:34;;;;;;;13.77;9.77;;;;;;;0.01;0.00;59042.03;10316084;28;20686;-51
2021/06/21 05:05:32;;;;;;;12.90;8.85;;;;;;;0.01;0.00;59042.03;10316855;28;20269;-53
2021/06/21 05:10:31;;;;;;;10.55;9.30;;;;;;;0.01;0.00;59042.03;10315947;28;20053;-52
2021/06/21 05:15:30;;;;;;;14.35;8.95;;;;;;;0.01;0.00;59042.03;10315441;28;20528;-56
2021/06/21 05:20:30;;;;;;;10.68;8.73;;;;;;;0.01;0.00;59042.03;10297841;28;20422;-55
2021/06/21 05:25:32;;;;;;;16.92;9.80;;;;;;;0.01;0.00;59042.03;10316643;28;20047;-55
2021/06/21 05:30:31;;;;;;;15.32;8.32;;;;;;;0.01;0.00;59042.03;10314682;28;20060;-55
2021/06/21 05:35:31;;;;;;;11.48;6.55;;;;;;;0.01;0.00;59042.03;10316717;28;20506;-52
2021/06/21 05:40:30;;;;;;;7.70;6.82;;;;;;;0.01;0.00;59042.03;10323721;28;20071;-56
2021/06/21 05:45:29;;;;;;;9.98;6.93;;;;;;;0.01;0.00;59042.03;10324161;28;20048;-54
2021/06/21 05:50:28;;;;;;;8.95;8.00;;;;;;;0.01;0.00;59042.03;10323441;28;20056;-56
2021/06/21 05:55:28;;;;;;;11.93;9.10;;;;;;;0.01;0.00;59042.03;10323109;28;20429;-55
2021/06/21 06:00:27;;;;;;;13.85;8.32;;;;;;;0.01;0.00;59042.03;10322799;28;20087;-56
2021/06/21 06:05:26;;;;;;;9.35;8.40;;;;;;;0.01;0.00;59042.03;10304814;28;20055;-53
2021/06/21 06:10:25;;;;;;;14.93;9.25;;;;;;;0.01;0.00;59042.03;10323485;28;20084;-53
2021/06/21 06:15:25;;;;;;;24.05;12.02;;;;;;;0.01;0.00;59042.03;10322229;28;20052;-51
2021/06/21 06:20:24;;;;;;;15.13;10.48;;;;;;;0.01;0.00;59042.03;10322918;28;20079;-52
2021/06/21 06:25:24;;;;;;;10.65;8.02;;;;;;;0.01;0.00;59042.03;10322642;28;20041;-51
2021/06/21 06:30:26;;;;;;;7.68;6.72;;;;;;;0.01;0.00;59042.03;10322089;28;20060;-55
2021/06/21 06:35:25;;;;;;;11.15;8.88;;;;;;;0.01;0.00;59042.03;10321827;28;20055;-56
2021/06/21 06:40:24;;;;;;;11.52;9.02;;;;;;;0.01;0.00;59042.03;10321207;28;20080;-52
2021/06/21 06:45:23;;;;;;;9.18;8.15;;;;;;;0.01;0.00;59042.03;10321468;28;20049;-55
2021/06/21 06:50:24;;;;;;;10.40;7.82;;;;;;;0.01;0.00;59042.03;10320986;28;20512;-51
2021/06/21 07:00:39;;;;;;;12.32;7.22;;;;;;;0.01;0.00;59042.03;10321355;28;20488;-55
2021/06/21 07:05:42;;;;;;;10.75;7.18;;;;;;;0.01;0.00;59042.03;10321418;28;20395;-55
2021/06/21 07:10:41;;;;;;;10.20;6.22;;;;;;;0.01;0.00;59042.03;10321620;28;20079;-54
2021/06/21 07:15:40;;;;;;;11.07;6.82;;;;;;;0.01;0.00;59042.03;10320347;28;20040;-53
2021/06/21 07:20:40;;;;;;;13.70;8.38;;;;;;;0.01;0.00;59042.03;10320745;28;20166;-54
2021/06/21 07:25:39;;;;;;;4.70;4.18;;;;;;;0.01;0.00;59042.03;10320805;28;20413;-55
2021/06/21 07:30:37;;;;;;;8.80;6.40;;;;;;;0.01;0.00;59042.03;10319181;28;20063;-53
2021/06/21 07:35:36;;;;;;;7.55;4.78;;;;;;;0.01;0.00;59042.03;10320163;28;20044;-54
2021/06/21 07:40:38;;;;;;;6.45;5.25;;;;;;;0.01;0.00;59042.03;10320503;28;20076;-56
2021/06/21 07:45:36;;;;;;;6.05;5.40;;;;;;;0.01;0.00;59042.03;10319254;28;20063;-54
2021/06/21 07:50:35;;;;;;;5.55;4.72;;;;;;;0.01;0.00;59042.03;10319613;28;20075;-52
2021/06/21 07:55:34;;;;;;;6.05;4.97;;;;;;;0.01;0.00;59042.03;10318654;28;20068;-56
2021/06/21 08:00:38;;;;;;;7.72;5.85;;;;;;;0.01;0.00;59042.03;10318188;28;20069;-54
2021/06/21 08:05:38;;;;;;;9.00;6.13;;;;;;;0.01;0.00;59042.03;10318971;28;20045;-55
2021/06/21 08:10:37;;;;;;;8.23;5.68;;;;;;;0.01;0.00;59042.03;10318101;28;20048;-55
2021/06/21 08:15:37;;;;;;;8.63;6.35;;;;;;;0.01;0.00;59042.03;10317851;28;20059;-56
2021/06/21 08:20:36;;;;;;;6.93;5.63;;;;;;;0.01;0.00;59042.03;10317622;28;20048;-52
2021/06/21 08:25:35;;;;;;;9.20;6.75;;;;;;;0.01;0.00;59042.03;10316763;28;20064;-54
2021/06/21 08:30:34;;;;;;;9.93;6.30;;;;;;;0.01;0.00;59042.03;10317527;28;20064;-53
2021/06/21 08:35:36;;;;;;;8.48;6.75;;;;;;;0.01;0.00;59042.03;10317226;28;20044;-54
2021/06/21 08:40:35;;;;;;;8.45;6.10;;;;;;;0.01;0.00;59042.03;10317485;28;20079;-51
2021/06/21 08:45:35;;;;;;;9.70;6.20;;;;;;;0.01;0.00;59042.03;10317009;28;20056;-56
2021/06/21 08:50:36;;;;;;;7.28;6.00;;;;;;;0.01;0.00;59042.03;10317335;28;20041;-52
2021/06/21 08:55:35;;;;;;;8.27;6.55;;;;;;;0.01;0.00;59042.03;10316135;28;20063;-52
2021/06/21 09:00:35;;;;;;;8.50;6.53;;;;;;;0.01;0.00;59042.03;10317202;28;20087;-55
2021/06/21 09:05:36;;;;;;;8.93;5.50;;;;;;;0.01;0.00;59042.03;10315829;28;20418;-52
2021/06/21 09:10:39;;;;;;;5.75;5.03;;;;;;;0.01;0.00;59042.03;10316851;28;20166;-54
2021/06/21 09:15:40;;;;;;;10.48;5.57;;;;;;;0.01;0.00;59042.03;10316093;28;20056;-55
2021/06/21 09:20:40;;;;;;;10.00;6.00;;;;;;;0.01;0.00;59042.03;10315967;28;20099;-56
2021/06/21 09:25:41;;;;;;;7.85;6.20;;;;;;;0.01;0.00;59042.03;10316552;28;20041;-55
2021/06/21 09:30:50;;;;;;;9.50;7.03;;;;;;;0.01;0.00;59042.03;10315316;28;20407;-55
2021/06/21 09:35:50;;;;;;;8.90;6.57;;;;;;;0.01;0.00;59042.03;10297529;28;20530;-53
2021/06/21 09:40:51;;;;;;;8.00;7.20;;;;;;;0.01;0.00;59042.03;10316257;28;20079;-54
2021/06/21 09:46:11;;;;;;;9.77;6.65;;;;;;;0.01;0.00;59042.03;10315290;28;20496;-56
2021/06/21 09:51:27;;;;;;;7.57;6.65;;;;;;;0.01;0.00;59042.03;10315516;28;20549;-54
2021/06/21 09:56:38;;;;;;;7.18;5.32;;;;;;;0.01;0.00;59042.03;10315401;28;20095;-52
2021/06/21 10:01:37;;;;;;;6.97;6.22;;;;;;;0.01;0.00;59042.03;10296944;28;20048;-55
2021/06/21 10:06:38;;;;;;;10.00;6.40;;;;;;;0.01;0.00;59042.03;10315899;28;20044;-53
2021/06/21 10:11:41;;;;;;;8.50;7.63;;;;;;;0.01;0.00;59042.03;10315023;28;20063;-54
2021/06/21 10:16:41;;;;;;;8.98;7.43;;;;;;;0.01;0.00;59042.03;10310735;28;20076;-53
2021/06/21 10:21:44;;;;;;;11.25;6.65;;;;;;;0.01;0.00;59042.03;10314997;28;20525;-54
2021/06/21 10:26:49;;;;;;;8.02;7.10;;;;;;;0.01;0.00;59042.03;10321913;28;20033;-56
2021/06/21 10:31:49;;;;;;;8.75;7.15;;;;;;;0.01;0.00;59042.03;10334802;28;20055;-53
2021/06/21 10:36:52;;;;;;;8.23;5.47;;;;;;;0.01;0.00;59042.03;10363302;28;20462;-53
2021/06/21 10:42:34;;;;;;;11.43;6.72;;;;;;;0.01;0.00;59042.03;10361750;28;20477;-55
2021/06/21 10:47:39;;;;;;;8.95;6.63;;;;;;;0.01;0.00;59042.03;10344879;28;20441;-55
2021/06/21 10:52:45;;;;;;;7.55;5.28;;;;;;;0.01;0.00;59042.03;10361942;28;20055;-55
2021/06/21 10:57:44;;;;;;;8.55;6.53;;;;;;;0.01;0.00;59042.03;10361987;28;20041;-56
2021/06/21 11:02:43;;;;;;;10.23;6.30;;;;;;;0.01;0.00;59042.03;10361716;28;20095;-56
2021/06/21 11:08:13;;;;;;;8.48;5.88;;;;;;;0.01;0.00;59042.03;10361139;28;20464;-55
2021/06/21 11:13:41;;;;;;;9.75;6.55;;;;;;;0.01;0.00;59042.03;10361664;28;20040;-56
2021/06/21 11:18:40;;;;;;;11.05;5.60;;;;;;;0.01;0.00;59042.03;10359931;28;20057;-56
2021/06/21 11:23:43;;;;;;;10.38;5.20;;;;;;;0.01;0.00;59042.03;10361219;28;20075;-55
2021/06/21 11:28:43;;;;;;;8.50;6.05;;;;;;;0.01;0.00;59042.03;10354893;28;20536;-56
2021/06/21 11:33:50;;;;;;;7.28;5.13;;;;;;;0.01;0.00;59042.03;10319344;28;20056;-55
2021/06/21 11:38:50;;;;;;;6.20;4.82;;;;;;;0.01;0.00;59042.03;10319455;28;20473;-55
2021/06/21 11:43:51;;;;;;;13.20;10.18;;;;;;;0.01;0.00;59042.03;10318602;28;20525;-55
2021/06/21 11:48:49;;;;;;;16.42;12.20;;;;;;;0.01;0.00;59042.03;10318346;28;20075;-54
2021/06/21 11:53:50;;;;;;;23.65;19.00;;;;;;;0.01;0.00;59042.03;10318880;28;20051;-55
2021/06/21 11:58:50;;;;;;;9.70;6.75;;;;;;;0.01;0.00;59042.03;10318672;28;20045;-55
2021/06/21 12:03:49;;;;;;;9.80;6.78;;;;;;;0.01;0.00;59042.03;10318423;28;20049;-57
2021/06/21 12:08:47;;;;;;;12.07;7.07;;;;;;;0.01;0.00;59042.03;10318292;28;20406;-53
2021/06/21 12:13:56;;;;;;;10.48;5.63;;;;;;;0.01;0.00;59042.03;10318033;28;20040;-55
2021/06/21 12:18:57;;;;;;;10.65;7.45;;;;;;;0.01;0.00;59042.03;10317379;28;20048;-56
2021/06/21 12:23:56;;;;;;;8.63;5.53;;;;;;;0.01;0.00;59042.03;10316885;28;20044;-54
2021/06/21 12:28:56;;;;;;;6.72;5.03;;;;;;;0.01;0.00;59042.03;10317446;28;20422;-55
2021/06/21 12:33:55;;;;;;;7.38;4.88;;;;;;;0.01;0.00;59042.03;10317546;28;20053;-55
2021/06/21 12:38:59;;;;;;;6.18;4.63;;;;;;;0.01;0.00;59042.03;10316194;28;20051;-55
2021/06/21 12:44:02;;;;;;;5.30;4.60;;;;;;;0.01;0.00;59042.03;10316716;28;20083;-56
2021/06/21 12:49:04;;;;;;;4.97;4.35;;;;;;;0.01;0.00;59042.03;10316890;28;20124;-55
2021/06/21 12:54:04;;;;;;;7.45;4.53;;;;;;;0.01;0.00;59042.03;10315998;28;20052;-55
2021/06/21 12:59:05;;;;;;;5.85;3.88;;;;;;;0.01;0.00;59042.03;10316608;28;20041;-55
2021/06/21 13:04:15;;;;;;;5.70;4.05;;;;;;;0.01;0.00;59042.03;10316294;28;20059;-55
2021/06/21 13:09:16;;;;;;;7.40;4.18;;;;;;;0.01;0.00;59042.03;10315593;28;20426;-54
2021/06/21 13:14:16;;;;;;;7.00;3.80;;;;;;;0.01;0.00;59042.03;10315704;28;20067;-55
2021/06/21 13:19:16;;;;;;;6.53;4.03;;;;;;;0.01;0.00;59042.03;10297842;28;20508;-53
2021/06/21 13:24:30;;;;;;;8.07;4.47;;;;;;;0.01;0.00;59042.03;10315377;28;20053;-55
2021/06/21 13:29:32;;;;;;;5.90;3.67;;;;;;;0.01;0.00;59042.03;10297349;28;20061;-56
2021/06/21 13:34:39;;;;;;;4.75;3.53;;;;;;;0.01;0.00;59042.03;10315841;28;20502;-56
2021/06/21 13:39:51;;;;;;;4.70;3.47;;;;;;;0.01;0.00;59042.03;10315089;28;20084;-56
2021/06/21 13:44:54;;;;;;;4.55;4.15;;;;;;;0.01;0.00;59042.03;10315820;28;20049;-55
2021/06/21 13:50:00;;;;;;;7.07;3.93;;;;;;;0.01;0.00;59042.03;10315714;28;20045;-55
2021/06/21 13:54:58;;;;;;;6.28;3.55;;;;;;;0.01;0.00;59042.03;10315606;28;20082;-55
2021/06/21 13:59:59;;;;;;;6.35;3.38;;;;;;;0.01;0.00;59042.03;10322506;28;20087;-53
2021/06/21 14:04:57;;;;;;;4.47;3.88;;;;;;;0.01;0.00;59042.03;10322672;28;20041;-54
2021/06/21 14:09:57;;;;;;;6.65;4.88;;;;;;;0.01;0.00;59042.03;10322572;28;20082;-55
2021/06/21 14:14:56;;;;;;;6.78;2.90;;;;;;;0.01;0.00;59042.03;10322522;28;20052;-54
2021/06/21 14:19:58;;;;;;;6.03;5.43;;;;;;;0.01;0.00;59042.03;10304584;28;20324;-56
2021/06/21 14:24:56;;;;;;;8.18;4.18;;;;;;;0.01;0.00;59042.03;10322237;28;20494;-56
2021/06/21 14:29:55;;;;;;;4.50;3.50;;;;;;;0.01;0.00;59042.03;10321908;28;20099;-56
2021/06/21 14:34:55;;;;;;;9.70;5.80;;;;;;;0.01;0.00;59042.03;10321284;28;20067;-55
2021/06/21 14:39:54;;;;;;;5.30;3.15;;;;;;;0.01;0.00;59042.03;10322352;28;20048;-54
2021/06/21 14:44:53;;;;;;;4.20;3.00;;;;;;;0.01;0.00;59042.03;10321713;28;20045;-52
2021/06/21 14:50:12;;;;;;;4.32;3.33;;;;;;;0.01;0.00;59042.03;10321632;28;20045;-53
2021/06/21 14:55:14;;;;;;;4.53;3.63;;;;;;;0.01;0.00;59042.03;10321125;28;20397;-53
2021/06/21 15:00:15;;;;;;;5.80;3.00;;;;;;;0.01;0.00;59042.03;10320654;28;20076;-54
2021/06/21 15:05:16;;;;;;;5.72;3.40;;;;;;;0.01;0.00;59042.03;10321438;28;20044;-54
2021/06/21 15:10:18;;;;;;;4.90;4.22;;;;;;;0.01;0.00;59042.03;10320139;28;20068;-54
2021/06/21 15:15:20;;;;;;;7.10;4.00;;;;;;;0.01;0.00;59042.03;10321100;28;20048;-53
2021/06/21 15:20:22;;;;;;;4.00;3.20;;;;;;;0.01;0.00;59042.03;10321038;28;20075;-54
2021/06/21 15:25:23;;;;;;;7.13;3.97;;;;;;;0.01;0.00;59042.03;10320150;28;20068;-54
2021/06/21 15:30:23;;;;;;;11.70;10.50;;;;;;;0.01;0.00;59042.03;10335727;28;20044;-49
2021/06/21 15:35:26;;;;;;;11.00;8.85;;;;;;;0.01;0.00;59042.03;10359344;28;20417;-56
2021/06/21 15:40:27;;;;;;;6.28;5.43;;;;;;;0.01;0.00;59042.03;10357516;28;20079;-55
2021/06/21 15:45:29;;;;;;;12.60;4.93;;;;;;;0.01;0.00;59042.03;10358095;28;20071;-54
2021/06/21 15:50:30;;;;;;;4.18;3.15;;;;;;;0.01;0.00;59042.03;10355397;28;20102;-55
2021/06/21 15:55:32;;;;;;;6.55;3.83;;;;;;;0.01;0.00;59042.03;10354319;28;20051;-55
2021/06/21 16:00:35;;;;;;;5.28;3.22;;;;;;;0.01;0.00;59042.03;10321574;28;20079;-51
2021/06/21 16:05:35;;;;;;;6.47;3.30;;;;;;;0.01;0.00;59042.03;10333990;28;20068;-54
2021/06/21 16:10:36;;;;;;;6.63;3.92;;;;;;;0.01;0.00;59042.03;10351797;28;20067;-55
2021/06/21 16:15:36;;;;;;;6.13;4.07;;;;;;;0.01;0.00;59042.03;10318220;28;20925;-55
2021/06/21 16:20:36;;;;;;;6.47;3.83;;;;;;;0.01;0.00;59042.03;10350219;28;20071;-55
2021/06/21 16:25:37;;;;;;;5.03;4.13;;;;;;;0.01;0.00;59042.03;10325099;28;20490;-55
2021/06/21 16:30:37;;;;;;;6.32;5.15;;;;;;;0.01;0.00;59042.03;10353008;28;20178;-55
2021/06/21 16:35:36;;;;;;;9.85;6.10;;;;;;;0.01;0.00;59042.03;10348915;28;20067;-53
2021/06/21 16:40:39;;;;;;;4.75;3.97;;;;;;;0.01;0.00;59042.03;10315699;28;20103;-58
2021/06/21 16:45:38;;;;;;;16.67;7.90;;;;;;;0.01;0.00;59042.03;10320642;28;20379;-59
2021/06/21 16:50:37;;;;;;;8.45;6.35;;;;;;;0.01;0.00;59042.03;10355750;28;20423;-58
2021/06/21 16:55:41;;;;;;;4.90;4.38;;;;;;;0.01;0.00;59042.03;10357919;28;20417;-58
2021/06/21 17:00:41;;;;;;;;;;;;;;;0.01;0.00;59042.03;10323002;28;20093;-58
2021/06/21 17:05:40;;;;;;;8.63;5.47;;;;;;;0.01;0.00;59042.03;10319524;28;19920;-58
2021/06/21 17:10:41;;;;;;;14.00;9.25;;;;;;;0.01;0.00;59042.03;10336573;28;20076;-58
2021/06/21 17:15:40;;;;;;;7.13;5.13;;;;;;;0.01;0.00;59042.03;10350386;28;20546;-58
2021/06/21 17:20:39;;;;;;;7.47;4.68;;;;;;;0.01;0.00;59042.03;10355335;28;20079;-58
2021/06/21 17:25:40;;;;;;;8.93;7.53;;;;;;;0.01;0.00;59042.03;10353592;28;20075;-57
2021/06/21 17:30:39;;;;;;;7.85;4.70;;;;;;;0.01;0.00;59042.03;10353510;28;20056;-58
2021/06/21 17:35:37;;;;;;;15.25;9.02;;;;;;;0.01;0.00;59042.03;10354232;28;20412;-58
2021/06/21 17:40:37;;;;;;;11.30;7.00;;;;;;;0.01;0.00;59042.03;10314947;28;20072;-57
2021/06/21 17:45:38;;;;;;;16.70;5.97;;;;;;;0.01;0.00;59042.03;10315203;28;20076;-58
2021/06/21 17:50:37;;;;;;;9.00;6.70;;;;;;;0.01;0.00;59042.03;10313903;28;20056;-58
2021/06/21 17:55:36;;;;;;;13.98;8.38;;;;;;;0.01;0.00;59042.03;10327936;28;20052;-58
2021/06/21 18:00:37;;;;;;;15.50;11.45;;;;;;;0.01;0.00;59042.03;10314447;28;20076;-58
2021/06/21 18:05:37;;;;;;;18.85;13.15;;;;;;;0.01;0.00;59042.03;10341822;28;20064;-59
2021/06/21 18:10:36;;;;;;;11.35;9.60;;;;;;;0.01;0.00;59042.03;10331281;28;20059;-59
2021/06/21 18:15:37;;;;;;;15.10;11.18;;;;;;;0.01;0.00;59042.03;10354625;28;20063;-58
2021/06/21 18:20:39;;;;;;;15.98;14.18;;;;;;;0.01;0.00;59042.03;10355082;28;20083;-59
2021/06/21 18:25:40;;;;;;;12.23;6.00;;;;;;;0.01;0.00;59042.03;10355012;28;20079;-59
2021/06/21 18:30:40;;;;;;;6.85;5.05;;;;;;;0.01;0.00;59042.03;10311700;28;20080;-59
2021/06/21 18:35:42;;;;;;;10.88;9.52;;;;;;;0.01;0.00;59042.03;10311886;28;20529;-59
2021/06/21 18:40:43;;;;;;;8.85;5.60;;;;;;;0.01;0.00;59042.03;10312711;28;20465;-58
2021/06/21 18:45:42;;;;;;;5.45;4.05;;;;;;;0.01;0.00;59042.03;10277861;28;20076;-59
2021/06/21 18:50:42;;;;;;;4.78;3.35;;;;;;;0.01;0.00;59042.03;10301875;28;20493;-59
2021/06/21 18:55:41;;;;;;;8.63;4.75;;;;;;;0.01;0.00;59042.03;10320600;28;20047;-57
2021/06/21 19:00:39;;;;;;;5.80;4.22;;;;;;;0.01;0.00;59042.03;10309489;28;20032;-58
2021/06/21 19:05:39;;;;;;;9.27;4.78;;;;;;;0.01;0.00;59042.03;10298564;28;20076;-58
2021/06/21 19:10:39;;;;;;;4.18;3.78;;;;;;;0.01;0.00;59042.03;10306714;28;20068;-58
2021/06/21 19:15:39;;;;;;;6.20;3.83;;;;;;;0.01;0.00;59042.03;10317605;28;20036;-57
2021/06/21 19:20:39;;;;;;;7.80;3.65;;;;;;;0.01;0.00;59042.03;10318455;28;20044;-57
2021/06/21 19:25:43;;;;;;;7.20;4.38;;;;;;;0.01;0.00;59042.03;10299597;28;20068;-59
2021/06/21 19:30:44;;;;;;;6.60;3.53;;;;;;;0.01;0.00;59042.03;10339215;28;20052;-58
2021/06/21 19:35:45;;;;;;;6.35;3.80;;;;;;;0.01;0.00;59042.03;10337152;28;20081;-59
2021/06/21 19:40:46;;;;;;;6.50;3.95;;;;;;;0.01;0.00;59042.03;10358994;28;20075;-59
2021/06/21 19:45:45;;;;;;;5.82;3.80;;;;;;;0.01;0.00;59042.03;10354247;28;20071;-52
2021/06/21 19:50:44;;;;;;;7.60;3.65;;;;;;;0.01;0.00;59042.03;10358565;28;20048;-59
2021/06/21 19:55:54;;;;;;;6.93;3.55;;;;;;;0.01;0.00;59042.03;10357697;28;20072;-60
2021/06/21 20:00:53;;;;;;;6.53;3.78;;;;;;;0.01;0.00;59042.03;10357500;28;20080;-58
2021/06/21 20:05:52;;;;;;;9.07;4.30;;;;;;;0.01;0.00;59042.03;10359250;28;20086;-59
2021/06/21 20:10:54;;;;;;;6.90;3.88;;;;;;;0.01;0.00;59042.03;10358140;28;20433;-59
2021/06/21 20:15:53;;;;;;;5.78;3.05;;;;;;;0.01;0.00;59042.03;10340420;28;20044;-58
2021/06/21 20:20:52;;;;;;;6.15;3.72;;;;;;;0.01;0.00;59042.03;10358602;28;20044;-59
2021/06/21 20:25:53;;;;;;;6.25;3.40;;;;;;;0.01;0.00;59042.03;10355026;28;20070;-59
2021/06/21 20:30:51;;;;;;;3.75;3.35;;;;;;;0.01;0.00;59042.03;10358137;28;20433;-59
2021/06/21 20:35:55;;;;;;;4.65;3.45;;;;;;;0.01;0.00;59042.03;10358098;28;20044;-59
2021/06/21 20:40:56;;;;;;;4.97;3.78;;;;;;;0.01;0.00;59042.03;10355417;28;20047;-59
2021/06/21 20:45:54;;;;;;;6.85;3.55;;;;;;;0.01;0.00;59042.03;10357197;28;20071;-59
2021/06/21 20:50:55;;;;;;;5.22;3.10;;;;;;;0.01;0.00;59042.03;10357734;28;20051;-59
2021/06/21 20:55:55;;;;;;;9.13;3.33;;;;;;;0.01;0.00;59042.03;10358335;28;20393;-59
2021/06/21 21:00:54;;;;;;;3.67;2.83;;;;;;;0.01;0.00;59042.03;10356780;28;20039;-58
2021/06/21 21:05:52;;;;;;;6.03;3.45;;;;;;;0.01;0.00;59042.03;10356322;28;20080;-59
2021/06/21 21:10:51;;;;;;;6.78;3.45;;;;;;;0.01;0.00;59042.03;10357316;28;20477;-59
2021/06/21 21:15:53;;;;;;;8.30;4.15;;;;;;;0.01;0.00;59042.03;10357448;28;20102;-59
2021/06/21 21:20:52;;;;;;;10.02;4.15;;;;;;;0.01;0.00;59042.03;10357572;28;20074;-59
2021/06/21 21:25:50;;;;;;;7.13;3.78;;;;;;;0.01;0.00;59042.03;10357424;28;20075;-58
2021/06/21 21:30:50;;;;;;;6.93;4.05;;;;;;;0.01;0.00;59042.03;10357327;28;20422;-58
2021/06/21 21:35:49;;;;;;;4.82;3.25;;;;;;;0.01;0.00;59042.03;10356706;28;20048;-59
2021/06/21 21:40:48;;;;;;;3.85;3.35;;;;;;;0.01;0.00;59042.03;10356309;28;20059;-59
2021/06/21 21:45:47;;;;;;;12.23;4.32;;;;;;;0.01;0.00;59042.03;10356939;28;20082;-59
2021/06/21 21:50:47;;;;;;;6.00;3.83;;;;;;;0.01;0.00;59042.03;10357002;28;20489;-59
2021/06/21 21:55:46;;;;;;;7.50;3.40;;;;;;;0.01;0.00;59042.03;10356075;28;20075;-59
2021/06/21 22:00:47;;;;;;;4.32;3.58;;;;;;;0.01;0.00;59042.03;10356959;28;20040;-59
2021/06/21 22:05:48;;;;;;;3.70;3.28;;;;;;;0.01;0.00;59042.03;10356821;28;20569;-59
2021/06/21 22:10:47;;;;;;;7.72;3.70;;;;;;;0.01;0.00;59042.03;10356357;28;20052;-59
2021/06/21 22:15:46;;;;;;;4.70;3.53;;;;;;;0.01;0.00;59042.03;10357124;28;20052;-59
2021/06/21 22:20:47;;;;;;;5.93;3.55;;;;;;;0.01;0.00;59042.03;10360529;28;20063;-57
2021/06/21 22:25:47;;;;;;;5.25;3.75;;;;;;;0.01;0.00;59042.03;10363472;28;20421;-59
2021/06/21 22:30:47;;;;;;;11.32;3.63;;;;;;;0.01;0.00;59042.03;10362966;28;20055;-58
2021/06/21 22:35:47;;;;;;;9.20;4.50;;;;;;;0.01;0.00;59042.03;10363784;28;20044;-59
2021/06/21 22:40:46;;;;;;;8.88;3.45;;;;;;;0.01;0.00;59042.03;10363576;28;20039;-58
2021/06/21 22:45:45;;;;;;;6.22;4.18;;;;;;;0.01;0.00;59042.03;10362074;28;20457;-58
2021/06/21 22:50:44;;;;;;;8.15;4.78;;;;;;;0.01;0.00;59042.03;10363405;28;20062;-59
2021/06/21 22:55:44;;;;;;;9.20;4.75;;;;;;;0.01;0.00;59042.03;10363223;28;20040;-59
2021/06/21 23:00:43;;;;;;;12.00;4.20;;;;;;;0.01;0.00;59042.03;10361457;28;20044;-58
2021/06/21 23:05:42;;;;;;;6.47;4.00;;;;;;;0.01;0.00;59042.03;10362734;28;20079;-58
2021/06/21 23:10:41;;;;;;;5.05;4.07;;;;;;;0.01;0.00;59042.03;10361704;28;20055;-58
2021/06/21 23:15:41;;;;;;;8.20;4.30;;;;;;;0.01;0.00;59042.03;10362298;28;20051;-58
2021/06/21 23:20:39;;;;;;;6.80;3.50;;;;;;;0.01;0.00;59042.03;10362385;28;20040;-59
2021/06/21 23:25:38;;;;;;;6.38;4.43;;;;;;;0.01;0.00;59042.03;10360971;28;20087;-58
2021/06/21 23:30:37;;;;;;;7.82;4.32;;;;;;;0.01;0.00;59042.03;10361323;28;20429;-59
2021/06/21 23:35:37;;;;;;;6.43;4.38;;;;;;;0.01;0.00;59042.03;10360705;28;20472;-59
2021/06/21 23:40:36;;;;;;;7.50;4.70;;;;;;;0.01;0.00;59042.03;10360405;28;20482;-59
2021/06/21 23:45:34;;;;;;;8.20;4.10;;;;;;;0.01;0.00;59042.03;10360708;28;20076;-59
2021/06/21 23:50:34;;;;;;;6.00;4.00;;;;;;;0.01;0.00;59042.03;10360954;28;20043;-58
2021/06/21 23:55:34;;;;;;;8.43;4.30;;;;;;;0.01;0.00;59042.03;10360234;28;20490;-59
